Historyczne dane pomiarowe

Dodano dane terminowe – wersja testowa.

Dane z okresu 1951-2019

Wersja bazy: 1.34 [2019-03-16, lista zmian], aktualizacja planowana na 2019-04-15

Dane meteo z obszaru Polski uzyskane na podstawie danych udostępnionych przez Instytut Meteorologii i Gospodarki Wodnej – Państwowy Instytut Badawczy.

 

Wybierz Datę:    

       

TemperaturaWilgotnośćWiatrCiśnienieOpadyŚniegCzas trwania zjawisk
 Stacja t tx tn tng RH VA  wxwx mslp ppp RRR   cm mm wxwxwxwxwxwxwx
1956-11-09 -2.6 0.0 -4.5 -9.2 76.8- 0.3 0.0---- 0.0-- 9---------
1956-11-08 0.0 1.0 -1.7 -1.1 98.0- 5.3 0.0---- 0.0-- 11---------
1956-11-07 0.4 3.7 -1.1 0.1 97.5- 8.0 1.3---- 36.9-- 12---------
1956-11-06 1.2 2.9 -1.7 -2.5 88.5- 8.0 4.3---- 36.6------------
1956-11-05 2.0 4.9 -0.2 -0.5 89.5- 8.0 2.7---- 2.3------------
1956-11-04 0.3 2.0 -5.2-10.5 84.8- 7.0 0.0---- 0.2-- 1---------
1956-11-03 -3.5 -1.5 -5.2-10.0 85.3- 6.3 0.0---- 0.0-- 1---------
1956-11-02 -2.1 -1.0 -3.7 -9.5 97.3- 7.7 0.0---- 1.4------------
1956-11-01 -1.8 1.1 -8.7-11.9 84.8- 1.3 0.0---- 0.0------------
1956-10-31 -7.2 2.0 -9.1 -5.4 92.5- 3.7 0.0---- 0.0------------
1956-10-30 1.6 2.5 -0.5 -3.1 98.8- 8.0 0.0---- 0.8-- 2---------
1956-10-29 1.4 5.2 0.3 -0.3 98.0- 8.0 1.7---- 16.8------------
1956-10-28 4.2 5.7 3.0 3.5 99.0- 8.0 0.7---- 87.1------------
1956-10-27 5.0 7.4 0.1 -0.3 97.5- 7.3 0.7---- 22.0-- 2---------
1956-10-26 1.7 7.2 0.1 2.6 98.0- 8.0 0.0---- 36.7------------
1956-10-25 8.4 11.7 6.0 2.5 85.0- 3.7 2.3---- 15.7------------
1956-10-24 11.4 14.0 5.0 -1.8 73.8- 2.7 0.7---- 0.0------------
1956-10-23 8.6 11.5 6.8 -0.8 81.8- 2.0 0.0---- 0.0------------
1956-10-22 9.7 14.3 6.3 -0.6 85.8- 0.0 0.0---- 0.0------------
1956-10-21 10.2 14.8 6.7 0.7 81.5- 2.7 1.0---- 0.0------------
1956-10-20 9.4 12.0 6.9 2.6 86.0- 7.3 0.7---- 0.0------------
1956-10-19 10.3 13.2 9.1 7.7 91.3- 8.0 1.0---- 2.7------------
1956-10-18 10.2 11.7 8.8 2.6 89.8- 8.0 0.0---- 1.5------------
1956-10-17 9.2 12.4 3.7 -3.8 72.8- 1.0 0.7---- 0.0------------
1956-10-16 5.8 10.2 0.6 -7.0 64.0- 0.0 0.0---- 0.0------------
1956-10-15 4.2 8.0 1.8 -1.3 88.0- 0.3 0.0---- 0.0------------
1956-10-14 7.6 10.6 6.3 2.7 88.3- 6.7 4.0---- 1.0------------
1956-10-13 7.5 8.6 4.7 -1.8 80.8- 7.0 3.0---- 0.0------------
1956-10-12 7.6 10.2 2.8 -2.9 73.0- 3.7 0.3---- 0.0------------
1956-10-11 3.3 7.5 -1.4 -6.4 86.0- 1.0 0.0---- 0.0------------
1956-10-10 1.5 5.7 -0.3 2.3 96.0- 4.0 0.0---- 0.0------------
1956-10-09 4.9 6.9 0.0 -3.1 91.8- 7.7 0.0---- 6.2------------
1956-10-08 1.2 4.5 -1.7 -7.0 83.0- 4.7 0.7---- 0.0------------
1956-10-07 1.8 4.5 -0.1 -0.3 84.5- 3.0 2.0---- 0.2------------
1956-10-06 1.9 5.2 0.4 -0.3 95.0- 7.7 1.7---- 5.0------------
1956-10-05 6.0 8.0 4.4 3.3 86.3- 6.3 1.3---- 16.2------------
1956-10-04 8.8 10.9 7.5 4.1 77.8- 5.7 0.3---- 2.0------------
1956-10-03 11.6 18.6 8.5 10.2 76.3- 5.3 3.3---- 2.5------------
1956-10-02 18.8 21.6 14.9 6.6 54.5- 2.7 4.7---- 0.4------------
1956-10-01 16.5 19.9 11.7 5.2 74.8- 3.3 2.3---- 0.0------------
1956-09-30 12.3 15.5 8.8 2.6 85.3- 2.7 0.3---- 0.0------------
1956-09-29 13.4 17.3 11.4 9.5 89.8- 4.7 2.0---- 0.0------------
1956-09-28 12.5 14.0 9.6 8.0 79.5- 3.7 5.7---- 0.0------------
1956-09-27 14.5 18.2 10.6 4.0 75.5- 5.7 2.0---- 0.3------------
1956-09-26 14.2 17.4 11.9 7.6 68.5- 1.0 13.3---- 0.0------------
1956-09-25 14.8 17.2 13.3 7.6 59.5- 0.0 13.3---- 0.0------------
1956-09-24 13.6 18.0 7.8 0.5 70.3- 0.0 3.7---- 0.0------------
1956-09-23 12.9 18.5 9.3 1.6 71.3- 0.0 0.7---- 0.0------------
1956-09-22 13.1 18.3 7.6 -0.3 70.5- 0.0 0.7---- 0.0------------
1956-09-21 10.2 15.5 3.7 -2.4 69.8- 0.0 0.0---- 0.0------------
1956-09-20 8.6 13.0 4.4 -2.4 77.8- 3.7 0.0---- 0.0------------
1956-09-19 7.0 11.2 1.8 -4.1 77.5- 0.0 0.3---- 0.0------------
1956-09-18 4.1 8.8 2.1 -2.3 93.5- 2.3 0.0---- 0.0------------
1956-09-17 7.2 9.0 6.2 1.3 94.0- 7.7 4.0---- 13.5------------
1956-09-16 8.6 13.6 2.6 -2.3 75.8- 2.7 0.0---- 0.0------------
1956-09-15 7.8 12.5 2.7 -3.4 88.5- 3.0 0.0---- 0.0------------
1956-09-14 6.4 10.6 4.6 4.6 94.3- 3.7 1.7---- 0.1------------
1956-09-13 5.7 7.3 4.4 3.6 93.5- 8.0 3.7---- 24.4------------
1956-09-12 8.2 14.0 4.8 6.1 84.0- 7.3 4.0---- 5.8------------
1956-09-11 13.2 16.5 11.4 8.8 83.0- 4.7 1.7---- 5.2------------
251.6 ms

 

Źródłem pochodzenia danych jest Instytut Meteorologii i Gospodarki Wodnej – Państwowy Instytut Badawczy. Dane Instytutu Meteorologii i Gospodarki Wodnej – Państwowego Instytutu Badawczego zostały przetworzone.

Dane źródłowe można odnaleźć na stronie https://dane.imgw.pl